sensor_id;sensor_type;location;lat;lon;timestamp;P1;durP1;ratioP1;P2;durP2;ratioP2
72586;SDS011;60621;49.576;11.024;2022-08-14T00:00:07;7.32;;;5.20;;
72586;SDS011;60621;49.576;11.024;2022-08-14T00:01:12;7.90;;;5.50;;
72586;SDS011;60621;49.576;11.024;2022-08-14T00:02:13;8.10;;;4.97;;
72586;SDS011;60621;49.576;11.024;2022-08-14T00:03:17;7.60;;;5.38;;
72586;SDS011;60621;49.576;11.024;2022-08-14T00:04:33;8.32;;;5.22;;
72586;SDS011;60621;49.576;11.024;2022-08-14T00:05:45;8.77;;;5.38;;
72586;SDS011;60621;49.576;11.024;2022-08-14T00:06:58;9.32;;;5.10;;
72586;SDS011;60621;49.576;11.024;2022-08-14T00:08:00;9.02;;;5.68;;
72586;SDS011;60621;49.576;11.024;2022-08-14T00:09:01;8.32;;;5.65;;
72586;SDS011;60621;49.576;11.024;2022-08-14T00:10:04;9.02;;;5.65;;
72586;SDS011;60621;49.576;11.024;2022-08-14T00:11:28;8.13;;;5.20;;
72586;SDS011;60621;49.576;11.024;2022-08-14T00:12:33;7.38;;;5.18;;
72586;SDS011;60621;49.576;11.024;2022-08-14T00:13:39;8.00;;;5.55;;
72586;SDS011;60621;49.576;11.024;2022-08-14T00:14:41;8.32;;;5.57;;
72586;SDS011;60621;49.576;11.024;2022-08-14T00:15:43;8.10;;;5.50;;
72586;SDS011;60621;49.576;11.024;2022-08-14T00:16:48;9.30;;;5.57;;
72586;SDS011;60621;49.576;11.024;2022-08-14T00:17:56;7.72;;;5.43;;
72586;SDS011;60621;49.576;11.024;2022-08-14T00:18:58;7.43;;;5.18;;
72586;SDS011;60621;49.576;11.024;2022-08-14T00:20:21;8.07;;;5.90;;
72586;SDS011;60621;49.576;11.024;2022-08-14T00:21:36;8.63;;;5.20;;
72586;SDS011;60621;49.576;11.024;2022-08-14T00:22:38;9.70;;;5.60;;
72586;SDS011;60621;49.576;11.024;2022-08-14T00:23:58;8.20;;;5.65;;
72586;SDS011;60621;49.576;11.024;2022-08-14T00:25:03;9.05;;;5.47;;
72586;SDS011;60621;49.576;11.024;2022-08-14T00:26:06;8.70;;;5.53;;
72586;SDS011;60621;49.576;11.024;2022-08-14T00:27:23;7.80;;;5.53;;
72586;SDS011;60621;49.576;11.024;2022-08-14T00:28:24;8.40;;;5.65;;
72586;SDS011;60621;49.576;11.024;2022-08-14T00:29:35;7.78;;;5.55;;
72586;SDS011;60621;49.576;11.024;2022-08-14T00:30:43;8.43;;;5.47;;
72586;SDS011;60621;49.576;11.024;2022-08-14T00:31:45;9.27;;;6.07;;
72586;SDS011;60621;49.576;11.024;2022-08-14T00:32:55;7.65;;;5.45;;
72586;SDS011;60621;49.576;11.024;2022-08-14T00:33:56;8.10;;;5.50;;
72586;SDS011;60621;49.576;11.024;2022-08-14T00:35:18;8.30;;;5.50;;
72586;SDS011;60621;49.576;11.024;2022-08-14T00:36:21;8.43;;;5.40;;
72586;SDS011;60621;49.576;11.024;2022-08-14T00:37:40;8.75;;;5.70;;
72586;SDS011;60621;49.576;11.024;2022-08-14T00:38:43;8.77;;;5.78;;
72586;SDS011;60621;49.576;11.024;2022-08-14T00:39:46;9.55;;;5.70;;
72586;SDS011;60621;49.576;11.024;2022-08-14T00:40:49;8.13;;;5.05;;
72586;SDS011;60621;49.576;11.024;2022-08-14T00:41:54;8.80;;;5.70;;
72586;SDS011;60621;49.576;11.024;2022-08-14T00:42:57;8.63;;;5.60;;
72586;SDS011;60621;49.576;11.024;2022-08-14T00:43:59;8.18;;;5.22;;
72586;SDS011;60621;49.576;11.024;2022-08-14T00:45:02;7.95;;;5.10;;
72586;SDS011;60621;49.576;11.024;2022-08-14T00:46:07;8.13;;;5.68;;
72586;SDS011;60621;49.576;11.024;2022-08-14T00:47:30;8.02;;;5.07;;
72586;SDS011;60621;49.576;11.024;2022-08-14T00:48:43;7.65;;;5.20;;
72586;SDS011;60621;49.576;11.024;2022-08-14T00:49:49;7.90;;;5.25;;
72586;SDS011;60621;49.576;11.024;2022-08-14T00:50:53;8.93;;;5.50;;
72586;SDS011;60621;49.576;11.024;2022-08-14T00:51:56;7.78;;;5.72;;
72586;SDS011;60621;49.576;11.024;2022-08-14T00:53:00;7.82;;;5.38;;
72586;SDS011;60621;49.576;11.024;2022-08-14T00:54:02;8.02;;;5.80;;
72586;SDS011;60621;49.576;11.024;2022-08-14T00:56:14;8.38;;;5.88;;
72586;SDS011;60621;49.576;11.024;2022-08-14T00:57:15;8.25;;;5.07;;
72586;SDS011;60621;49.576;11.024;2022-08-14T00:58:18;9.02;;;5.82;;
72586;SDS011;60621;49.576;11.024;2022-08-14T00:59:33;7.18;;;4.97;;
72586;SDS011;60621;49.576;11.024;2022-08-14T01:00:36;8.50;;;5.50;;
72586;SDS011;60621;49.576;11.024;2022-08-14T01:01:52;8.27;;;5.20;;
72586;SDS011;60621;49.576;11.024;2022-08-14T01:02:56;7.40;;;5.32;;
72586;SDS011;60621;49.576;11.024;2022-08-14T01:05:06;7.88;;;5.28;;
72586;SDS011;60621;49.576;11.024;2022-08-14T01:06:08;7.80;;;5.32;;
72586;SDS011;60621;49.576;11.024;2022-08-14T01:07:12;7.63;;;5.13;;
72586;SDS011;60621;49.576;11.024;2022-08-14T01:09:46;8.15;;;5.40;;
72586;SDS011;60621;49.576;11.024;2022-08-14T01:10:50;8.18;;;5.53;;
72586;SDS011;60621;49.576;11.024;2022-08-14T01:11:51;9.38;;;5.75;;
72586;SDS011;60621;49.576;11.024;2022-08-14T01:13:03;7.95;;;5.70;;
72586;SDS011;60621;49.576;11.024;2022-08-14T01:14:04;9.35;;;5.90;;
72586;SDS011;60621;49.576;11.024;2022-08-14T01:15:28;7.65;;;5.38;;
72586;SDS011;60621;49.576;11.024;2022-08-14T01:16:51;7.90;;;5.63;;
72586;SDS011;60621;49.576;11.024;2022-08-14T01:17:55;8.02;;;5.57;;
72586;SDS011;60621;49.576;11.024;2022-08-14T01:19:15;8.63;;;5.63;;
72586;SDS011;60621;49.576;11.024;2022-08-14T01:20:36;8.35;;;5.93;;
72586;SDS011;60621;49.576;11.024;2022-08-14T01:21:57;7.82;;;5.32;;
72586;SDS011;60621;49.576;11.024;2022-08-14T01:22:59;9.07;;;5.90;;
72586;SDS011;60621;49.576;11.024;2022-08-14T01:24:01;9.20;;;6.13;;
72586;SDS011;60621;49.576;11.024;2022-08-14T01:25:05;9.13;;;6.13;;
72586;SDS011;60621;49.576;11.024;2022-08-14T01:27:18;8.90;;;6.20;;
72586;SDS011;60621;49.576;11.024;2022-08-14T01:28:22;8.52;;;6.20;;
72586;SDS011;60621;49.576;11.024;2022-08-14T01:29:48;9.60;;;6.30;;
72586;SDS011;60621;49.576;11.024;2022-08-14T01:31:08;9.57;;;6.95;;
72586;SDS011;60621;49.576;11.024;2022-08-14T01:32:14;10.10;;;6.60;;
72586;SDS011;60621;49.576;11.024;2022-08-14T01:33:24;9.05;;;6.65;;
72586;SDS011;60621;49.576;11.024;2022-08-14T01:34:29;11.30;;;7.40;;
72586;SDS011;60621;49.576;11.024;2022-08-14T01:35:52;10.18;;;7.18;;
72586;SDS011;60621;49.576;11.024;2022-08-14T01:37:05;11.02;;;7.90;;
72586;SDS011;60621;49.576;11.024;2022-08-14T01:38:11;10.73;;;7.55;;
72586;SDS011;60621;49.576;11.024;2022-08-14T01:39:17;10.05;;;7.18;;
72586;SDS011;60621;49.576;11.024;2022-08-14T01:40:21;10.50;;;6.85;;
72586;SDS011;60621;49.576;11.024;2022-08-14T01:41:37;11.48;;;7.55;;
72586;SDS011;60621;49.576;11.024;2022-08-14T01:42:43;11.25;;;7.43;;
72586;SDS011;60621;49.576;11.024;2022-08-14T01:43:48;10.45;;;7.20;;
72586;SDS011;60621;49.576;11.024;2022-08-14T01:44:57;10.07;;;6.80;;
72586;SDS011;60621;49.576;11.024;2022-08-14T01:45:58;10.07;;;6.57;;
72586;SDS011;60621;49.576;11.024;2022-08-14T01:47:08;10.95;;;7.13;;
72586;SDS011;60621;49.576;11.024;2022-08-14T01:49:25;9.90;;;6.00;;
72586;SDS011;60621;49.576;11.024;2022-08-14T01:50:36;9.52;;;6.50;;
72586;SDS011;60621;49.576;11.024;2022-08-14T01:51:38;10.38;;;6.70;;
72586;SDS011;60621;49.576;11.024;2022-08-14T01:54:01;9.00;;;6.28;;
72586;SDS011;60621;49.576;11.024;2022-08-14T01:55:14;9.88;;;6.50;;
72586;SDS011;60621;49.576;11.024;2022-08-14T01:56:17;10.48;;;7.40;;
72586;SDS011;60621;49.576;11.024;2022-08-14T01:57:19;8.98;;;6.60;;
72586;SDS011;60621;49.576;11.024;2022-08-14T01:58:21;9.68;;;6.80;;
72586;SDS011;60621;49.576;11.024;2022-08-14T01:59:30;9.15;;;6.50;;
72586;SDS011;60621;49.576;11.024;2022-08-14T02:00:38;10.00;;;7.07;;
72586;SDS011;60621;49.576;11.024;2022-08-14T02:01:41;9.68;;;6.65;;
72586;SDS011;60621;49.576;11.024;2022-08-14T02:02:58;10.60;;;6.97;;
72586;SDS011;60621;49.576;11.024;2022-08-14T02:04:03;11.40;;;6.93;;
72586;SDS011;60621;49.576;11.024;2022-08-14T02:05:25;8.88;;;6.43;;
72586;SDS011;60621;49.576;11.024;2022-08-14T02:06:38;10.07;;;6.63;;
72586;SDS011;60621;49.576;11.024;2022-08-14T02:07:41;9.63;;;6.70;;
72586;SDS011;60621;49.576;11.024;2022-08-14T02:09:07;9.52;;;6.53;;
72586;SDS011;60621;49.576;11.024;2022-08-14T02:10:22;9.38;;;6.15;;
72586;SDS011;60621;49.576;11.024;2022-08-14T02:11:27;9.27;;;6.97;;
72586;SDS011;60621;49.576;11.024;2022-08-14T02:12:30;8.75;;;6.55;;
72586;SDS011;60621;49.576;11.024;2022-08-14T02:13:31;10.73;;;6.95;;
72586;SDS011;60621;49.576;11.024;2022-08-14T02:14:37;8.80;;;6.35;;
72586;SDS011;60621;49.576;11.024;2022-08-14T02:15:59;9.82;;;6.80;;
72586;SDS011;60621;49.576;11.024;2022-08-14T02:17:20;10.15;;;6.63;;
72586;SDS011;60621;49.576;11.024;2022-08-14T02:18:24;10.10;;;6.38;;
72586;SDS011;60621;49.576;11.024;2022-08-14T02:19:26;9.55;;;6.47;;
72586;SDS011;60621;49.576;11.024;2022-08-14T02:20:32;9.23;;;6.55;;
72586;SDS011;60621;49.576;11.024;2022-08-14T02:21:36;9.23;;;6.60;;
72586;SDS011;60621;49.576;11.024;2022-08-14T02:22:48;9.70;;;6.80;;
72586;SDS011;60621;49.576;11.024;2022-08-14T02:23:54;9.38;;;6.90;;
72586;SDS011;60621;49.576;11.024;2022-08-14T02:25:59;9.93;;;6.95;;
72586;SDS011;60621;49.576;11.024;2022-08-14T02:27:25;10.02;;;7.05;;
72586;SDS011;60621;49.576;11.024;2022-08-14T02:28:48;10.38;;;7.18;;
72586;SDS011;60621;49.576;11.024;2022-08-14T02:29:58;9.48;;;6.35;;
72586;SDS011;60621;49.576;11.024;2022-08-14T02:31:02;9.75;;;7.18;;
72586;SDS011;60621;49.576;11.024;2022-08-14T02:32:09;9.55;;;6.70;;
72586;SDS011;60621;49.576;11.024;2022-08-14T02:33:31;10.95;;;7.70;;
72586;SDS011;60621;49.576;11.024;2022-08-14T02:34:34;9.50;;;6.75;;
72586;SDS011;60621;49.576;11.024;2022-08-14T02:36:41;10.60;;;6.90;;
72586;SDS011;60621;49.576;11.024;2022-08-14T02:38:03;9.68;;;6.72;;
72586;SDS011;60621;49.576;11.024;2022-08-14T02:39:05;9.43;;;6.78;;
72586;SDS011;60621;49.576;11.024;2022-08-14T02:40:10;9.52;;;6.68;;
72586;SDS011;60621;49.576;11.024;2022-08-14T02:41:12;9.75;;;6.78;;
72586;SDS011;60621;49.576;11.024;2022-08-14T02:42:16;10.38;;;7.25;;
72586;SDS011;60621;49.576;11.024;2022-08-14T02:43:37;10.57;;;6.68;;
72586;SDS011;60621;49.576;11.024;2022-08-14T02:44:48;9.50;;;6.90;;
72586;SDS011;60621;49.576;11.024;2022-08-14T02:45:51;9.95;;;7.22;;
72586;SDS011;60621;49.576;11.024;2022-08-14T02:46:53;9.32;;;6.68;;
72586;SDS011;60621;49.576;11.024;2022-08-14T02:48:02;9.70;;;6.95;;
72586;SDS011;60621;49.576;11.024;2022-08-14T02:49:10;9.98;;;6.72;;
72586;SDS011;60621;49.576;11.024;2022-08-14T02:50:13;9.90;;;7.25;;
72586;SDS011;60621;49.576;11.024;2022-08-14T02:51:17;9.30;;;6.70;;
72586;SDS011;60621;49.576;11.024;2022-08-14T02:52:19;10.13;;;6.63;;
72586;SDS011;60621;49.576;11.024;2022-08-14T02:53:44;10.18;;;6.63;;
72586;SDS011;60621;49.576;11.024;2022-08-14T02:54:46;9.27;;;6.35;;
72586;SDS011;60621;49.576;11.024;2022-08-14T02:55:48;9.00;;;6.47;;
72586;SDS011;60621;49.576;11.024;2022-08-14T02:56:53;9.77;;;6.32;;
72586;SDS011;60621;49.576;11.024;2022-08-14T02:58:16;9.55;;;6.50;;
72586;SDS011;60621;49.576;11.024;2022-08-14T02:59:31;9.52;;;6.70;;
72586;SDS011;60621;49.576;11.024;2022-08-14T03:00:34;10.32;;;7.15;;
72586;SDS011;60621;49.576;11.024;2022-08-14T03:01:40;11.15;;;7.18;;
72586;SDS011;60621;49.576;11.024;2022-08-14T03:02:50;10.43;;;6.65;;
72586;SDS011;60621;49.576;11.024;2022-08-14T03:05:02;10.38;;;7.07;;
72586;SDS011;60621;49.576;11.024;2022-08-14T03:06:05;10.20;;;6.93;;
72586;SDS011;60621;49.576;11.024;2022-08-14T03:07:09;10.00;;;6.70;;
72586;SDS011;60621;49.576;11.024;2022-08-14T03:08:17;9.73;;;6.30;;
72586;SDS011;60621;49.576;11.024;2022-08-14T03:09:20;8.45;;;6.32;;
72586;SDS011;60621;49.576;11.024;2022-08-14T03:10:23;9.35;;;6.45;;
72586;SDS011;60621;49.576;11.024;2022-08-14T03:11:32;9.40;;;6.53;;
72586;SDS011;60621;49.576;11.024;2022-08-14T03:12:35;8.60;;;6.30;;
72586;SDS011;60621;49.576;11.024;2022-08-14T03:13:47;10.07;;;6.97;;
72586;SDS011;60621;49.576;11.024;2022-08-14T03:14:51;10.13;;;7.00;;
72586;SDS011;60621;49.576;11.024;2022-08-14T03:15:53;10.35;;;6.82;;
72586;SDS011;60621;49.576;11.024;2022-08-14T03:16:58;9.85;;;6.75;;
72586;SDS011;60621;49.576;11.024;2022-08-14T03:17:59;9.52;;;7.10;;
72586;SDS011;60621;49.576;11.024;2022-08-14T03:19:02;9.57;;;6.40;;
72586;SDS011;60621;49.576;11.024;2022-08-14T03:20:07;11.00;;;7.10;;
72586;SDS011;60621;49.576;11.024;2022-08-14T03:21:13;9.65;;;6.95;;
72586;SDS011;60621;49.576;11.024;2022-08-14T03:22:16;9.82;;;7.30;;
72586;SDS011;60621;49.576;11.024;2022-08-14T03:23:18;9.57;;;6.63;;
72586;SDS011;60621;49.576;11.024;2022-08-14T03:24:21;9.48;;;6.70;;
72586;SDS011;60621;49.576;11.024;2022-08-14T03:25:24;9.80;;;6.97;;
72586;SDS011;60621;49.576;11.024;2022-08-14T03:26:25;10.10;;;7.18;;
72586;SDS011;60621;49.576;11.024;2022-08-14T03:27:30;11.30;;;7.32;;
72586;SDS011;60621;49.576;11.024;2022-08-14T03:28:49;10.45;;;7.13;;
72586;SDS011;60621;49.576;11.024;2022-08-14T03:29:52;9.65;;;6.68;;
72586;SDS011;60621;49.576;11.024;2022-08-14T03:30:54;10.20;;;7.15;;
72586;SDS011;60621;49.576;11.024;2022-08-14T03:32:00;9.57;;;6.78;;
72586;SDS011;60621;49.576;11.024;2022-08-14T03:33:04;9.75;;;6.97;;
72586;SDS011;60621;49.576;11.024;2022-08-14T03:34:06;9.82;;;6.80;;
72586;SDS011;60621;49.576;11.024;2022-08-14T03:35:25;11.52;;;7.20;;
72586;SDS011;60621;49.576;11.024;2022-08-14T03:36:40;9.20;;;6.28;;
72586;SDS011;60621;49.576;11.024;2022-08-14T03:38:04;10.25;;;6.72;;
72586;SDS011;60621;49.576;11.024;2022-08-14T03:39:29;10.07;;;7.10;;
72586;SDS011;60621;49.576;11.024;2022-08-14T03:40:31;10.48;;;7.30;;
72586;SDS011;60621;49.576;11.024;2022-08-14T03:41:33;9.38;;;6.80;;
72586;SDS011;60621;49.576;11.024;2022-08-14T03:42:38;9.75;;;7.03;;
72586;SDS011;60621;49.576;11.024;2022-08-14T03:43:40;9.23;;;6.55;;
72586;SDS011;60621;49.576;11.024;2022-08-14T03:44:45;11.25;;;7.28;;
72586;SDS011;60621;49.576;11.024;2022-08-14T03:46:09;9.05;;;6.72;;
72586;SDS011;60621;49.576;11.024;2022-08-14T03:47:33;10.23;;;6.85;;
72586;SDS011;60621;49.576;11.024;2022-08-14T03:48:56;10.52;;;7.50;;
72586;SDS011;60621;49.576;11.024;2022-08-14T03:49:58;12.10;;;7.22;;
72586;SDS011;60621;49.576;11.024;2022-08-14T03:51:02;12.15;;;8.18;;
72586;SDS011;60621;49.576;11.024;2022-08-14T03:52:03;10.88;;;7.78;;
72586;SDS011;60621;49.576;11.024;2022-08-14T03:53:25;10.27;;;7.43;;
72586;SDS011;60621;49.576;11.024;2022-08-14T03:54:27;10.88;;;7.78;;
72586;SDS011;60621;49.576;11.024;2022-08-14T03:56:32;10.95;;;7.40;;
72586;SDS011;60621;49.576;11.024;2022-08-14T03:57:34;10.68;;;7.40;;
72586;SDS011;60621;49.576;11.024;2022-08-14T03:58:38;12.27;;;7.85;;
72586;SDS011;60621;49.576;11.024;2022-08-14T03:59:42;11.25;;;7.63;;
72586;SDS011;60621;49.576;11.024;2022-08-14T04:00:44;12.30;;;7.43;;
72586;SDS011;60621;49.576;11.024;2022-08-14T04:01:46;11.23;;;7.40;;
72586;SDS011;60621;49.576;11.024;2022-08-14T04:03:02;10.40;;;7.53;;
72586;SDS011;60621;49.576;11.024;2022-08-14T04:04:07;10.82;;;7.40;;
72586;SDS011;60621;49.576;11.024;2022-08-14T04:05:09;11.43;;;7.65;;
72586;SDS011;60621;49.576;11.024;2022-08-14T04:06:13;10.93;;;7.55;;
72586;SDS011;60621;49.576;11.024;2022-08-14T04:07:21;11.05;;;7.57;;
72586;SDS011;60621;49.576;11.024;2022-08-14T04:08:22;12.48;;;7.95;;
72586;SDS011;60621;49.576;11.024;2022-08-14T04:10:33;11.93;;;7.65;;
72586;SDS011;60621;49.576;11.024;2022-08-14T04:11:35;11.75;;;7.93;;
72586;SDS011;60621;49.576;11.024;2022-08-14T04:12:38;10.55;;;7.80;;
72586;SDS011;60621;49.576;11.024;2022-08-14T04:13:40;10.38;;;7.32;;
72586;SDS011;60621;49.576;11.024;2022-08-14T04:14:42;10.68;;;7.55;;
72586;SDS011;60621;49.576;11.024;2022-08-14T04:15:46;11.15;;;7.55;;
72586;SDS011;60621;49.576;11.024;2022-08-14T04:17:02;11.20;;;7.60;;
72586;SDS011;60621;49.576;11.024;2022-08-14T04:18:10;11.50;;;7.63;;
72586;SDS011;60621;49.576;11.024;2022-08-14T04:19:12;11.10;;;7.63;;
72586;SDS011;60621;49.576;11.024;2022-08-14T04:20:17;10.65;;;7.00;;
72586;SDS011;60621;49.576;11.024;2022-08-14T04:21:26;12.68;;;7.68;;
72586;SDS011;60621;49.576;11.024;2022-08-14T04:22:40;10.30;;;7.20;;
72586;SDS011;60621;49.576;11.024;2022-08-14T04:23:45;11.25;;;7.20;;
72586;SDS011;60621;49.576;11.024;2022-08-14T04:24:58;11.25;;;7.35;;
72586;SDS011;60621;49.576;11.024;2022-08-14T04:26:06;9.30;;;6.80;;
72586;SDS011;60621;49.576;11.024;2022-08-14T04:27:27;11.05;;;7.13;;
72586;SDS011;60621;49.576;11.024;2022-08-14T04:28:30;9.27;;;6.60;;
72586;SDS011;60621;49.576;11.024;2022-08-14T04:29:52;11.40;;;7.00;;
72586;SDS011;60621;49.576;11.024;2022-08-14T04:30:55;10.55;;;7.32;;
72586;SDS011;60621;49.576;11.024;2022-08-14T04:31:59;10.70;;;7.38;;
72586;SDS011;60621;49.576;11.024;2022-08-14T04:33:21;11.77;;;7.50;;
72586;SDS011;60621;49.576;11.024;2022-08-14T04:34:24;9.93;;;6.97;;
72586;SDS011;60621;49.576;11.024;2022-08-14T04:35:28;10.55;;;7.20;;
72586;SDS011;60621;49.576;11.024;2022-08-14T04:36:49;10.32;;;7.22;;
72586;SDS011;60621;49.576;11.024;2022-08-14T04:39:38;9.95;;;7.05;;
72586;SDS011;60621;49.576;11.024;2022-08-14T04:40:59;10.80;;;7.28;;
72586;SDS011;60621;49.576;11.024;2022-08-14T04:42:20;11.02;;;8.00;;
72586;SDS011;60621;49.576;11.024;2022-08-14T04:43:51;11.32;;;7.65;;
72586;SDS011;60621;49.576;11.024;2022-08-14T04:44:53;12.65;;;7.80;;
72586;SDS011;60621;49.576;11.024;2022-08-14T04:46:01;12.00;;;7.90;;
72586;SDS011;60621;49.576;11.024;2022-08-14T04:47:07;11.50;;;7.82;;
72586;SDS011;60621;49.576;11.024;2022-08-14T04:48:31;10.52;;;7.35;;
72586;SDS011;60621;49.576;11.024;2022-08-14T04:49:43;10.68;;;7.93;;
72586;SDS011;60621;49.576;11.024;2022-08-14T04:50:57;11.68;;;8.05;;
72586;SDS011;60621;49.576;11.024;2022-08-14T04:52:00;10.27;;;7.22;;
72586;SDS011;60621;49.576;11.024;2022-08-14T04:53:19;12.65;;;8.07;;
72586;SDS011;60621;49.576;11.024;2022-08-14T04:54:34;12.27;;;7.72;;
72586;SDS011;60621;49.576;11.024;2022-08-14T04:55:36;12.10;;;7.88;;
72586;SDS011;60621;49.576;11.024;2022-08-14T04:56:37;11.07;;;7.75;;
72586;SDS011;60621;49.576;11.024;2022-08-14T04:57:42;11.00;;;7.30;;
72586;SDS011;60621;49.576;11.024;2022-08-14T04:58:44;10.75;;;7.72;;
72586;SDS011;60621;49.576;11.024;2022-08-14T04:59:48;10.52;;;7.72;;
72586;SDS011;60621;49.576;11.024;2022-08-14T05:00:51;11.05;;;7.63;;
72586;SDS011;60621;49.576;11.024;2022-08-14T05:01:58;10.32;;;7.40;;
72586;SDS011;60621;49.576;11.024;2022-08-14T05:02:59;11.25;;;7.97;;
72586;SDS011;60621;49.576;11.024;2022-08-14T05:04:07;12.02;;;8.25;;
72586;SDS011;60621;49.576;11.024;2022-08-14T05:06:20;11.13;;;7.57;;
72586;SDS011;60621;49.576;11.024;2022-08-14T05:07:39;13.52;;;7.38;;
72586;SDS011;60621;49.576;11.024;2022-08-14T05:09:01;11.02;;;7.72;;
72586;SDS011;60621;49.576;11.024;2022-08-14T05:10:03;12.98;;;8.07;;
72586;SDS011;60621;49.576;11.024;2022-08-14T05:11:13;10.88;;;7.93;;
72586;SDS011;60621;49.576;11.024;2022-08-14T05:12:15;12.45;;;8.05;;
72586;SDS011;60621;49.576;11.024;2022-08-14T05:13:37;11.18;;;8.00;;
72586;SDS011;60621;49.576;11.024;2022-08-14T05:14:59;11.18;;;7.43;;
72586;SDS011;60621;49.576;11.024;2022-08-14T05:16:01;11.80;;;7.55;;
72586;SDS011;60621;49.576;11.024;2022-08-14T05:17:06;10.63;;;7.75;;
72586;SDS011;60621;49.576;11.024;2022-08-14T05:18:11;11.32;;;8.02;;
72586;SDS011;60621;49.576;11.024;2022-08-14T05:19:34;10.80;;;7.30;;
72586;SDS011;60621;49.576;11.024;2022-08-14T05:20:58;12.25;;;7.68;;
72586;SDS011;60621;49.576;11.024;2022-08-14T05:22:21;10.73;;;7.47;;
72586;SDS011;60621;49.576;11.024;2022-08-14T05:23:28;11.63;;;7.35;;
72586;SDS011;60621;49.576;11.024;2022-08-14T05:24:32;11.68;;;8.30;;
72586;SDS011;60621;49.576;11.024;2022-08-14T05:25:35;11.88;;;8.23;;
72586;SDS011;60621;49.576;11.024;2022-08-14T05:26:37;10.95;;;7.85;;
72586;SDS011;60621;49.576;11.024;2022-08-14T05:27:47;11.85;;;8.90;;
72586;SDS011;60621;49.576;11.024;2022-08-14T05:28:48;12.48;;;8.15;;
72586;SDS011;60621;49.576;11.024;2022-08-14T05:29:51;10.68;;;7.53;;
72586;SDS011;60621;49.576;11.024;2022-08-14T05:30:59;10.98;;;7.80;;
72586;SDS011;60621;49.576;11.024;2022-08-14T05:32:03;12.18;;;8.30;;
72586;SDS011;60621;49.576;11.024;2022-08-14T05:33:07;10.88;;;7.75;;
72586;SDS011;60621;49.576;11.024;2022-08-14T05:34:09;11.52;;;7.95;;
72586;SDS011;60621;49.576;11.024;2022-08-14T05:35:11;11.40;;;7.75;;
72586;SDS011;60621;49.576;11.024;2022-08-14T05:36:14;10.93;;;7.85;;
72586;SDS011;60621;49.576;11.024;2022-08-14T05:37:17;9.85;;;7.38;;
72586;SDS011;60621;49.576;11.024;2022-08-14T05:38:20;13.23;;;8.45;;
72586;SDS011;60621;49.576;11.024;2022-08-14T05:39:32;13.50;;;8.10;;
72586;SDS011;60621;49.576;11.024;2022-08-14T05:40:34;13.82;;;9.20;;
72586;SDS011;60621;49.576;11.024;2022-08-14T05:41:36;11.02;;;8.35;;
72586;SDS011;60621;49.576;11.024;2022-08-14T05:42:54;11.52;;;8.18;;
72586;SDS011;60621;49.576;11.024;2022-08-14T05:43:56;11.20;;;7.88;;
72586;SDS011;60621;49.576;11.024;2022-08-14T05:44:58;11.68;;;7.80;;
72586;SDS011;60621;49.576;11.024;2022-08-14T05:46:00;11.57;;;7.72;;
72586;SDS011;60621;49.576;11.024;2022-08-14T05:47:05;10.95;;;7.78;;
72586;SDS011;60621;49.576;11.024;2022-08-14T05:48:11;11.75;;;7.90;;
72586;SDS011;60621;49.576;11.024;2022-08-14T05:49:33;11.20;;;8.10;;
72586;SDS011;60621;49.576;11.024;2022-08-14T05:50:38;11.13;;;8.23;;
72586;SDS011;60621;49.576;11.024;2022-08-14T05:51:42;11.98;;;8.38;;
72586;SDS011;60621;49.576;11.024;2022-08-14T05:52:48;11.68;;;8.23;;
72586;SDS011;60621;49.576;11.024;2022-08-14T05:53:51;11.23;;;8.10;;
72586;SDS011;60621;49.576;11.024;2022-08-14T05:55:13;10.50;;;7.63;;
72586;SDS011;60621;49.576;11.024;2022-08-14T05:56:16;13.68;;;8.88;;
72586;SDS011;60621;49.576;11.024;2022-08-14T05:57:18;12.45;;;8.45;;
72586;SDS011;60621;49.576;11.024;2022-08-14T05:58:20;11.30;;;8.13;;
72586;SDS011;60621;49.576;11.024;2022-08-14T05:59:34;11.48;;;8.05;;
72586;SDS011;60621;49.576;11.024;2022-08-14T06:00:41;12.68;;;8.05;;
72586;SDS011;60621;49.576;11.024;2022-08-14T06:01:44;10.00;;;7.28;;
72586;SDS011;60621;49.576;11.024;2022-08-14T06:02:46;11.00;;;7.82;;
72586;SDS011;60621;49.576;11.024;2022-08-14T06:03:48;11.25;;;8.20;;
72586;SDS011;60621;49.576;11.024;2022-08-14T06:04:54;10.30;;;7.68;;
72586;SDS011;60621;49.576;11.024;2022-08-14T06:05:59;10.82;;;7.90;;
72586;SDS011;60621;49.576;11.024;2022-08-14T06:08:04;10.80;;;7.47;;
72586;SDS011;60621;49.576;11.024;2022-08-14T06:09:21;11.18;;;7.57;;
72586;SDS011;60621;49.576;11.024;2022-08-14T06:10:23;12.77;;;7.90;;
72586;SDS011;60621;49.576;11.024;2022-08-14T06:11:28;11.63;;;8.23;;
72586;SDS011;60621;49.576;11.024;2022-08-14T06:13:53;13.07;;;8.27;;
72586;SDS011;60621;49.576;11.024;2022-08-14T06:14:55;11.00;;;8.02;;
72586;SDS011;60621;49.576;11.024;2022-08-14T06:15:57;10.60;;;7.63;;
72586;SDS011;60621;49.576;11.024;2022-08-14T06:16:59;10.90;;;7.70;;
72586;SDS011;60621;49.576;11.024;2022-08-14T06:18:00;11.00;;;7.40;;
72586;SDS011;60621;49.576;11.024;2022-08-14T06:19:02;10.35;;;7.43;;
72586;SDS011;60621;49.576;11.024;2022-08-14T06:21:10;11.27;;;7.80;;
72586;SDS011;60621;49.576;11.024;2022-08-14T06:22:13;10.73;;;7.60;;
72586;SDS011;60621;49.576;11.024;2022-08-14T06:23:17;11.15;;;7.57;;
72586;SDS011;60621;49.576;11.024;2022-08-14T06:24:19;10.57;;;7.93;;
72586;SDS011;60621;49.576;11.024;2022-08-14T06:25:21;11.02;;;7.93;;
72586;SDS011;60621;49.576;11.024;2022-08-14T06:26:23;10.70;;;7.18;;
72586;SDS011;60621;49.576;11.024;2022-08-14T06:27:37;10.82;;;7.97;;
72586;SDS011;60621;49.576;11.024;2022-08-14T06:28:40;12.43;;;8.30;;
72586;SDS011;60621;49.576;11.024;2022-08-14T06:29:45;10.18;;;7.18;;
72586;SDS011;60621;49.576;11.024;2022-08-14T06:30:47;10.90;;;8.07;;
72586;SDS011;60621;49.576;11.024;2022-08-14T06:31:49;10.57;;;7.72;;
72586;SDS011;60621;49.576;11.024;2022-08-14T06:33:00;10.98;;;7.30;;
72586;SDS011;60621;49.576;11.024;2022-08-14T06:34:06;11.60;;;7.90;;
72586;SDS011;60621;49.576;11.024;2022-08-14T06:35:28;9.93;;;6.95;;
72586;SDS011;60621;49.576;11.024;2022-08-14T06:36:30;11.15;;;7.43;;
72586;SDS011;60621;49.576;11.024;2022-08-14T06:37:42;10.15;;;7.30;;
72586;SDS011;60621;49.576;11.024;2022-08-14T06:39:51;10.48;;;7.10;;
72586;SDS011;60621;49.576;11.024;2022-08-14T06:41:58;12.38;;;7.30;;
72586;SDS011;60621;49.576;11.024;2022-08-14T06:43:01;10.43;;;6.95;;
72586;SDS011;60621;49.576;11.024;2022-08-14T06:44:07;10.90;;;7.20;;
72586;SDS011;60621;49.576;11.024;2022-08-14T06:46:15;9.82;;;7.00;;
72586;SDS011;60621;49.576;11.024;2022-08-14T06:47:23;9.85;;;7.00;;
72586;SDS011;60621;49.576;11.024;2022-08-14T06:48:25;10.10;;;6.57;;
72586;SDS011;60621;49.576;11.024;2022-08-14T06:50:30;10.52;;;6.85;;
72586;SDS011;60621;49.576;11.024;2022-08-14T06:51:33;9.88;;;6.82;;
72586;SDS011;60621;49.576;11.024;2022-08-14T06:52:45;10.35;;;6.43;;
72586;SDS011;60621;49.576;11.024;2022-08-14T06:53:52;9.38;;;6.40;;
72586;SDS011;60621;49.576;11.024;2022-08-14T06:54:54;9.98;;;6.38;;
72586;SDS011;60621;49.576;11.024;2022-08-14T06:55:57;9.13;;;5.93;;
72586;SDS011;60621;49.576;11.024;2022-08-14T06:57:02;8.48;;;5.78;;
72586;SDS011;60621;49.576;11.024;2022-08-14T06:58:04;9.32;;;6.10;;
72586;SDS011;60621;49.576;11.024;2022-08-14T06:59:24;9.13;;;6.03;;
72586;SDS011;60621;49.576;11.024;2022-08-14T07:00:27;10.00;;;6.07;;
72586;SDS011;60621;49.576;11.024;2022-08-14T07:01:31;8.15;;;5.32;;